sensor_id;sensor_type;location;lat;lon;timestamp;P1;durP1;ratioP1;P2;durP2;ratioP2
35887;SDS011;21990;42.540;23.496;2023-03-14T00:01:23;39.85;;;16.48;;
35887;SDS011;21990;42.540;23.496;2023-03-14T00:03:49;28.55;;;14.50;;
35887;SDS011;21990;42.540;23.496;2023-03-14T00:06:15;33.97;;;14.13;;
35887;SDS011;21990;42.540;23.496;2023-03-14T00:08:42;30.52;;;15.20;;
35887;SDS011;21990;42.540;23.496;2023-03-14T00:11:10;32.58;;;15.52;;
35887;SDS011;21990;42.540;23.496;2023-03-14T00:13:38;33.85;;;14.82;;
35887;SDS011;21990;42.540;23.496;2023-03-14T00:16:08;36.53;;;15.57;;
35887;SDS011;21990;42.540;23.496;2023-03-14T00:18:36;30.85;;;15.98;;
35887;SDS011;21990;42.540;23.496;2023-03-14T00:21:03;32.33;;;16.52;;
35887;SDS011;21990;42.540;23.496;2023-03-14T00:23:31;31.83;;;15.48;;
35887;SDS011;21990;42.540;23.496;2023-03-14T00:26:00;39.28;;;16.05;;
35887;SDS011;21990;42.540;23.496;2023-03-14T00:28:30;33.40;;;16.20;;
35887;SDS011;21990;42.540;23.496;2023-03-14T00:30:56;31.15;;;15.35;;
35887;SDS011;21990;42.540;23.496;2023-03-14T00:33:22;37.83;;;16.05;;
35887;SDS011;21990;42.540;23.496;2023-03-14T00:38:21;36.00;;;16.23;;
35887;SDS011;21990;42.540;23.496;2023-03-14T00:40:46;30.77;;;15.25;;
35887;SDS011;21990;42.540;23.496;2023-03-14T00:43:12;29.17;;;15.55;;
35887;SDS011;21990;42.540;23.496;2023-03-14T00:45:37;28.23;;;14.85;;
35887;SDS011;21990;42.540;23.496;2023-03-14T00:48:03;29.75;;;14.23;;
35887;SDS011;21990;42.540;23.496;2023-03-14T00:50:28;35.13;;;15.93;;
35887;SDS011;21990;42.540;23.496;2023-03-14T00:52:54;40.22;;;16.40;;
35887;SDS011;21990;42.540;23.496;2023-03-14T00:55:19;41.88;;;17.92;;
35887;SDS011;21990;42.540;23.496;2023-03-14T00:57:45;38.20;;;16.05;;
35887;SDS011;21990;42.540;23.496;2023-03-14T01:00:11;31.70;;;15.63;;
35887;SDS011;21990;42.540;23.496;2023-03-14T01:02:37;34.60;;;16.95;;
35887;SDS011;21990;42.540;23.496;2023-03-14T01:05:03;44.08;;;16.83;;
35887;SDS011;21990;42.540;23.496;2023-03-14T01:07:29;36.60;;;16.35;;
35887;SDS011;21990;42.540;23.496;2023-03-14T01:09:55;45.83;;;19.92;;
35887;SDS011;21990;42.540;23.496;2023-03-14T01:12:20;39.58;;;18.13;;
35887;SDS011;21990;42.540;23.496;2023-03-14T01:14:46;36.53;;;16.27;;
35887;SDS011;21990;42.540;23.496;2023-03-14T01:17:11;44.80;;;17.83;;
35887;SDS011;21990;42.540;23.496;2023-03-14T01:19:37;35.95;;;16.75;;
35887;SDS011;21990;42.540;23.496;2023-03-14T01:22:03;32.97;;;16.25;;
35887;SDS011;21990;42.540;23.496;2023-03-14T01:24:28;35.90;;;17.05;;
35887;SDS011;21990;42.540;23.496;2023-03-14T01:26:54;50.30;;;19.30;;
35887;SDS011;21990;42.540;23.496;2023-03-14T01:29:19;48.03;;;21.08;;
35887;SDS011;21990;42.540;23.496;2023-03-14T01:31:45;46.85;;;20.45;;
35887;SDS011;21990;42.540;23.496;2023-03-14T01:34:10;58.47;;;22.63;;
35887;SDS011;21990;42.540;23.496;2023-03-14T01:36:36;44.55;;;19.65;;
35887;SDS011;21990;42.540;23.496;2023-03-14T01:39:02;53.72;;;23.02;;
35887;SDS011;21990;42.540;23.496;2023-03-14T01:41:28;47.65;;;19.73;;
35887;SDS011;21990;42.540;23.496;2023-03-14T01:43:54;41.63;;;18.05;;
35887;SDS011;21990;42.540;23.496;2023-03-14T01:46:21;45.05;;;17.83;;
35887;SDS011;21990;42.540;23.496;2023-03-14T01:51:42;32.17;;;16.20;;
35887;SDS011;21990;42.540;23.496;2023-03-14T01:54:14;41.33;;;17.92;;
35887;SDS011;21990;42.540;23.496;2023-03-14T01:56:41;52.58;;;22.15;;
35887;SDS011;21990;42.540;23.496;2023-03-14T01:59:11;63.47;;;25.35;;
35887;SDS011;21990;42.540;23.496;2023-03-14T02:01:38;66.93;;;23.35;;
35887;SDS011;21990;42.540;23.496;2023-03-14T02:04:07;53.88;;;20.48;;
35887;SDS011;21990;42.540;23.496;2023-03-14T02:09:22;42.92;;;16.98;;
35887;SDS011;21990;42.540;23.496;2023-03-14T02:11:48;37.03;;;17.60;;
35887;SDS011;21990;42.540;23.496;2023-03-14T02:14:19;42.78;;;20.08;;
35887;SDS011;21990;42.540;23.496;2023-03-14T02:16:52;41.10;;;17.85;;
35887;SDS011;21990;42.540;23.496;2023-03-14T02:19:20;42.65;;;19.00;;
35887;SDS011;21990;42.540;23.496;2023-03-14T02:22:09;54.47;;;21.17;;
35887;SDS011;21990;42.540;23.496;2023-03-14T02:24:43;40.97;;;19.38;;
35887;SDS011;21990;42.540;23.496;2023-03-14T02:27:19;52.80;;;20.67;;
35887;SDS011;21990;42.540;23.496;2023-03-14T02:29:48;45.42;;;19.58;;
35887;SDS011;21990;42.540;23.496;2023-03-14T02:32:21;50.78;;;21.10;;
35887;SDS011;21990;42.540;23.496;2023-03-14T02:34:50;50.25;;;20.98;;
35887;SDS011;21990;42.540;23.496;2023-03-14T02:37:20;42.63;;;18.85;;
35887;SDS011;21990;42.540;23.496;2023-03-14T02:39:49;38.22;;;18.95;;
35887;SDS011;21990;42.540;23.496;2023-03-14T02:42:15;40.50;;;18.95;;
35887;SDS011;21990;42.540;23.496;2023-03-14T02:44:55;43.35;;;18.67;;
35887;SDS011;21990;42.540;23.496;2023-03-14T02:47:34;41.95;;;18.55;;
35887;SDS011;21990;42.540;23.496;2023-03-14T02:50:06;42.28;;;20.02;;
35887;SDS011;21990;42.540;23.496;2023-03-14T02:52:35;40.03;;;19.55;;
35887;SDS011;21990;42.540;23.496;2023-03-14T02:55:00;38.10;;;17.33;;
35887;SDS011;21990;42.540;23.496;2023-03-14T02:57:26;37.97;;;17.05;;
35887;SDS011;21990;42.540;23.496;2023-03-14T02:59:51;34.30;;;17.38;;
35887;SDS011;21990;42.540;23.496;2023-03-14T03:02:17;39.08;;;17.67;;
35887;SDS011;21990;42.540;23.496;2023-03-14T03:04:43;34.42;;;17.48;;
35887;SDS011;21990;42.540;23.496;2023-03-14T03:07:08;35.92;;;16.83;;
35887;SDS011;21990;42.540;23.496;2023-03-14T03:09:34;39.38;;;17.63;;
35887;SDS011;21990;42.540;23.496;2023-03-14T03:11:59;42.28;;;17.77;;
35887;SDS011;21990;42.540;23.496;2023-03-14T03:14:25;36.15;;;18.52;;
35887;SDS011;21990;42.540;23.496;2023-03-14T03:16:50;44.75;;;19.17;;
35887;SDS011;21990;42.540;23.496;2023-03-14T03:19:16;40.63;;;18.85;;
35887;SDS011;21990;42.540;23.496;2023-03-14T03:21:43;42.45;;;19.15;;
35887;SDS011;21990;42.540;23.496;2023-03-14T03:24:09;44.83;;;19.25;;
35887;SDS011;21990;42.540;23.496;2023-03-14T03:26:35;43.25;;;18.88;;
35887;SDS011;21990;42.540;23.496;2023-03-14T03:29:02;40.03;;;16.85;;
35887;SDS011;21990;42.540;23.496;2023-03-14T03:31:27;38.30;;;16.17;;
35887;SDS011;21990;42.540;23.496;2023-03-14T03:33:53;32.92;;;16.73;;
35887;SDS011;21990;42.540;23.496;2023-03-14T03:36:25;44.17;;;19.73;;
35887;SDS011;21990;42.540;23.496;2023-03-14T03:38:51;66.57;;;25.45;;
35887;SDS011;21990;42.540;23.496;2023-03-14T03:41:17;69.65;;;25.13;;
35887;SDS011;21990;42.540;23.496;2023-03-14T03:43:42;60.10;;;24.88;;
35887;SDS011;21990;42.540;23.496;2023-03-14T03:46:08;52.80;;;22.10;;
35887;SDS011;21990;42.540;23.496;2023-03-14T03:48:34;56.55;;;20.95;;
35887;SDS011;21990;42.540;23.496;2023-03-14T03:51:00;58.58;;;22.05;;
35887;SDS011;21990;42.540;23.496;2023-03-14T03:53:26;59.08;;;21.90;;
35887;SDS011;21990;42.540;23.496;2023-03-14T03:55:52;61.67;;;21.73;;
35887;SDS011;21990;42.540;23.496;2023-03-14T03:58:18;47.20;;;21.33;;
35887;SDS011;21990;42.540;23.496;2023-03-14T04:00:43;55.08;;;20.20;;
35887;SDS011;21990;42.540;23.496;2023-03-14T04:03:09;47.63;;;19.77;;
35887;SDS011;21990;42.540;23.496;2023-03-14T04:05:35;48.03;;;18.90;;
35887;SDS011;21990;42.540;23.496;2023-03-14T04:08:01;48.60;;;18.30;;
35887;SDS011;21990;42.540;23.496;2023-03-14T04:10:27;49.40;;;19.77;;
35887;SDS011;21990;42.540;23.496;2023-03-14T04:12:54;52.40;;;17.77;;
35887;SDS011;21990;42.540;23.496;2023-03-14T04:15:19;42.88;;;17.48;;
35887;SDS011;21990;42.540;23.496;2023-03-14T04:17:45;46.92;;;18.83;;
35887;SDS011;21990;42.540;23.496;2023-03-14T04:20:10;41.90;;;18.15;;
35887;SDS011;21990;42.540;23.496;2023-03-14T04:22:37;36.08;;;17.30;;
35887;SDS011;21990;42.540;23.496;2023-03-14T04:25:04;56.33;;;17.40;;
35887;SDS011;21990;42.540;23.496;2023-03-14T04:27:30;53.85;;;18.45;;
35887;SDS011;21990;42.540;23.496;2023-03-14T04:29:56;39.55;;;17.40;;
35887;SDS011;21990;42.540;23.496;2023-03-14T04:32:21;77.25;;;28.58;;
35887;SDS011;21990;42.540;23.496;2023-03-14T04:34:47;59.67;;;24.10;;
35887;SDS011;21990;42.540;23.496;2023-03-14T04:37:12;61.13;;;22.65;;
35887;SDS011;21990;42.540;23.496;2023-03-14T04:39:38;41.40;;;17.50;;
35887;SDS011;21990;42.540;23.496;2023-03-14T04:42:03;47.97;;;18.40;;
35887;SDS011;21990;42.540;23.496;2023-03-14T04:44:29;82.32;;;18.90;;
35887;SDS011;21990;42.540;23.496;2023-03-14T04:46:55;46.90;;;17.98;;
35887;SDS011;21990;42.540;23.496;2023-03-14T04:49:20;41.33;;;18.02;;
35887;SDS011;21990;42.540;23.496;2023-03-14T04:51:46;47.10;;;18.13;;
35887;SDS011;21990;42.540;23.496;2023-03-14T04:54:11;36.70;;;17.52;;
35887;SDS011;21990;42.540;23.496;2023-03-14T04:56:37;43.28;;;18.90;;
35887;SDS011;21990;42.540;23.496;2023-03-14T04:59:03;42.95;;;18.35;;
35887;SDS011;21990;42.540;23.496;2023-03-14T05:01:29;42.10;;;19.30;;
35887;SDS011;21990;42.540;23.496;2023-03-14T05:03:54;42.97;;;18.23;;
35887;SDS011;21990;42.540;23.496;2023-03-14T05:06:20;44.15;;;20.10;;
35887;SDS011;21990;42.540;23.496;2023-03-14T05:08:45;46.78;;;20.85;;
35887;SDS011;21990;42.540;23.496;2023-03-14T05:11:11;58.17;;;20.58;;
35887;SDS011;21990;42.540;23.496;2023-03-14T05:13:38;55.63;;;21.63;;
35887;SDS011;21990;42.540;23.496;2023-03-14T05:16:07;48.20;;;22.00;;
35887;SDS011;21990;42.540;23.496;2023-03-14T05:18:33;53.42;;;26.20;;
35887;SDS011;21990;42.540;23.496;2023-03-14T05:21:00;60.50;;;26.05;;
35887;SDS011;21990;42.540;23.496;2023-03-14T05:23:26;62.67;;;25.55;;
35887;SDS011;21990;42.540;23.496;2023-03-14T05:25:51;56.58;;;23.40;;
35887;SDS011;21990;42.540;23.496;2023-03-14T05:28:17;52.45;;;23.73;;
35887;SDS011;21990;42.540;23.496;2023-03-14T05:30:43;57.78;;;24.42;;
35887;SDS011;21990;42.540;23.496;2023-03-14T05:33:08;61.50;;;27.73;;
35887;SDS011;21990;42.540;23.496;2023-03-14T05:35:34;58.08;;;26.45;;
35887;SDS011;21990;42.540;23.496;2023-03-14T05:37:59;62.45;;;27.70;;
35887;SDS011;21990;42.540;23.496;2023-03-14T05:40:25;65.70;;;27.40;;
35887;SDS011;21990;42.540;23.496;2023-03-14T05:42:50;65.15;;;29.90;;
35887;SDS011;21990;42.540;23.496;2023-03-14T05:45:17;84.68;;;38.28;;
35887;SDS011;21990;42.540;23.496;2023-03-14T05:47:43;55.92;;;28.10;;
35887;SDS011;21990;42.540;23.496;2023-03-14T05:50:09;43.38;;;19.65;;
35887;SDS011;21990;42.540;23.496;2023-03-14T05:52:35;28.90;;;11.98;;
35887;SDS011;21990;42.540;23.496;2023-03-14T05:55:01;30.25;;;11.75;;
35887;SDS011;21990;42.540;23.496;2023-03-14T05:57:27;21.38;;;11.00;;
35887;SDS011;21990;42.540;23.496;2023-03-14T05:59:52;17.55;;;9.48;;
35887;SDS011;21990;42.540;23.496;2023-03-14T06:02:18;28.75;;;10.55;;
35887;SDS011;21990;42.540;23.496;2023-03-14T06:04:43;20.42;;;9.80;;
35887;SDS011;21990;42.540;23.496;2023-03-14T06:07:09;30.95;;;11.93;;
35887;SDS011;21990;42.540;23.496;2023-03-14T06:09:34;29.60;;;15.77;;
35887;SDS011;21990;42.540;23.496;2023-03-14T06:12:00;39.60;;;18.13;;
35887;SDS011;21990;42.540;23.496;2023-03-14T06:14:25;37.22;;;19.42;;
35887;SDS011;21990;42.540;23.496;2023-03-14T06:16:51;28.85;;;15.20;;
35887;SDS011;21990;42.540;23.496;2023-03-14T06:19:17;24.58;;;13.57;;
35887;SDS011;21990;42.540;23.496;2023-03-14T06:21:43;35.35;;;13.90;;
35887;SDS011;21990;42.540;23.496;2023-03-14T06:24:08;26.10;;;14.10;;
35887;SDS011;21990;42.540;23.496;2023-03-14T06:26:34;30.83;;;14.90;;
35887;SDS011;21990;42.540;23.496;2023-03-14T06:28:59;41.33;;;16.58;;
35887;SDS011;21990;42.540;23.496;2023-03-14T06:31:28;33.38;;;16.42;;
35887;SDS011;21990;42.540;23.496;2023-03-14T06:33:57;30.02;;;14.32;;
35887;SDS011;21990;42.540;23.496;2023-03-14T06:36:23;25.08;;;13.57;;
35887;SDS011;21990;42.540;23.496;2023-03-14T06:38:48;25.33;;;12.80;;
35887;SDS011;21990;42.540;23.496;2023-03-14T06:41:14;42.70;;;19.85;;
35887;SDS011;21990;42.540;23.496;2023-03-14T06:43:39;119.60;;;65.93;;
35887;SDS011;21990;42.540;23.496;2023-03-14T06:46:05;26.95;;;14.07;;
35887;SDS011;21990;42.540;23.496;2023-03-14T06:48:31;26.52;;;11.73;;
35887;SDS011;21990;42.540;23.496;2023-03-14T06:50:56;22.15;;;11.32;;
35887;SDS011;21990;42.540;23.496;2023-03-14T06:53:22;18.10;;;9.85;;
35887;SDS011;21990;42.540;23.496;2023-03-14T06:55:47;8.88;;;5.88;;
35887;SDS011;21990;42.540;23.496;2023-03-14T06:58:13;15.85;;;7.97;;
35887;SDS011;21990;42.540;23.496;2023-03-14T07:00:39;18.80;;;8.63;;
35887;SDS011;21990;42.540;23.496;2023-03-14T07:03:04;10.25;;;6.40;;
35887;SDS011;21990;42.540;23.496;2023-03-14T07:05:30;12.95;;;5.75;;
35887;SDS011;21990;42.540;23.496;2023-03-14T07:07:56;10.57;;;5.88;;
35887;SDS011;21990;42.540;23.496;2023-03-14T07:10:22;8.88;;;4.80;;
35887;SDS011;21990;42.540;23.496;2023-03-14T07:12:47;7.68;;;4.43;;
35887;SDS011;21990;42.540;23.496;2023-03-14T07:15:14;11.48;;;4.45;;
35887;SDS011;21990;42.540;23.496;2023-03-14T07:17:39;6.95;;;4.28;;
35887;SDS011;21990;42.540;23.496;2023-03-14T07:20:05;9.75;;;4.55;;
35887;SDS011;21990;42.540;23.496;2023-03-14T07:22:32;7.93;;;4.72;;
35887;SDS011;21990;42.540;23.496;2023-03-14T07:24:57;9.18;;;4.93;;
35887;SDS011;21990;42.540;23.496;2023-03-14T07:27:23;9.27;;;4.88;;
35887;SDS011;21990;42.540;23.496;2023-03-14T07:29:49;6.03;;;3.75;;
35887;SDS011;21990;42.540;23.496;2023-03-14T07:32:15;7.13;;;4.13;;
35887;SDS011;21990;42.540;23.496;2023-03-14T07:34:43;7.32;;;4.35;;
35887;SDS011;21990;42.540;23.496;2023-03-14T07:37:09;8.20;;;4.25;;
35887;SDS011;21990;42.540;23.496;2023-03-14T07:39:34;6.82;;;4.15;;
35887;SDS011;21990;42.540;23.496;2023-03-14T07:42:00;9.20;;;4.90;;
35887;SDS011;21990;42.540;23.496;2023-03-14T07:44:26;11.13;;;4.30;;
35887;SDS011;21990;42.540;23.496;2023-03-14T07:46:51;14.70;;;5.18;;
35887;SDS011;21990;42.540;23.496;2023-03-14T07:49:17;6.85;;;3.95;;
35887;SDS011;21990;42.540;23.496;2023-03-14T07:51:43;8.68;;;4.32;;
35887;SDS011;21990;42.540;23.496;2023-03-14T07:54:11;8.20;;;3.88;;
35887;SDS011;21990;42.540;23.496;2023-03-14T07:56:37;8.70;;;4.18;;
35887;SDS011;21990;42.540;23.496;2023-03-14T07:59:02;5.95;;;2.95;;
35887;SDS011;21990;42.540;23.496;2023-03-14T08:01:28;7.75;;;3.33;;
35887;SDS011;21990;42.540;23.496;2023-03-14T08:03:54;10.88;;;3.90;;
35887;SDS011;21990;42.540;23.496;2023-03-14T08:06:19;11.05;;;3.65;;
35887;SDS011;21990;42.540;23.496;2023-03-14T08:08:45;5.03;;;3.13;;
35887;SDS011;21990;42.540;23.496;2023-03-14T08:11:10;7.68;;;3.97;;
35887;SDS011;21990;42.540;23.496;2023-03-14T08:13:36;6.85;;;3.47;;
35887;SDS011;21990;42.540;23.496;2023-03-14T08:16:03;6.10;;;3.30;;
35887;SDS011;21990;42.540;23.496;2023-03-14T08:18:29;7.78;;;3.35;;
35887;SDS011;21990;42.540;23.496;2023-03-14T08:20:54;7.78;;;3.15;;
35887;SDS011;21990;42.540;23.496;2023-03-14T08:23:20;6.25;;;3.60;;
35887;SDS011;21990;42.540;23.496;2023-03-14T08:25:48;5.75;;;2.90;;
35887;SDS011;21990;42.540;23.496;2023-03-14T08:28:14;4.10;;;2.42;;
35887;SDS011;21990;42.540;23.496;2023-03-14T08:30:40;5.95;;;2.90;;
35887;SDS011;21990;42.540;23.496;2023-03-14T08:33:05;6.78;;;3.08;;
35887;SDS011;21990;42.540;23.496;2023-03-14T08:35:31;9.48;;;2.97;;
35887;SDS011;21990;42.540;23.496;2023-03-14T08:37:56;5.32;;;2.72;;
35887;SDS011;21990;42.540;23.496;2023-03-14T08:40:22;8.05;;;2.72;;
35887;SDS011;21990;42.540;23.496;2023-03-14T08:42:47;4.07;;;2.60;;
35887;SDS011;21990;42.540;23.496;2023-03-14T08:45:14;4.60;;;2.50;;
35887;SDS011;21990;42.540;23.496;2023-03-14T08:47:41;9.88;;;2.63;;
35887;SDS011;21990;42.540;23.496;2023-03-14T08:50:08;6.72;;;3.30;;
35887;SDS011;21990;42.540;23.496;2023-03-14T08:52:34;5.72;;;3.17;;
35887;SDS011;21990;42.540;23.496;2023-03-14T08:55:00;5.90;;;2.42;;
35887;SDS011;21990;42.540;23.496;2023-03-14T08:57:25;9.63;;;2.53;;
35887;SDS011;21990;42.540;23.496;2023-03-14T08:59:54;7.65;;;2.65;;
35887;SDS011;21990;42.540;23.496;2023-03-14T09:02:20;4.75;;;2.60;;
35887;SDS011;21990;42.540;23.496;2023-03-14T09:04:46;3.80;;;2.20;;
35887;SDS011;21990;42.540;23.496;2023-03-14T09:07:12;7.78;;;2.40;;
35887;SDS011;21990;42.540;23.496;2023-03-14T09:09:38;7.57;;;2.83;;
35887;SDS011;21990;42.540;23.496;2023-03-14T09:12:03;6.43;;;2.38;;
35887;SDS011;21990;42.540;23.496;2023-03-14T09:14:30;8.82;;;2.90;;
35887;SDS011;21990;42.540;23.496;2023-03-14T09:16:56;9.75;;;3.17;;
35887;SDS011;21990;42.540;23.496;2023-03-14T09:19:21;4.85;;;2.38;;
35887;SDS011;21990;42.540;23.496;2023-03-14T09:21:47;4.43;;;1.88;;
35887;SDS011;21990;42.540;23.496;2023-03-14T09:24:12;4.85;;;2.17;;
35887;SDS011;21990;42.540;23.496;2023-03-14T09:26:38;3.47;;;2.30;;
35887;SDS011;21990;42.540;23.496;2023-03-14T09:29:03;4.03;;;2.00;;
35887;SDS011;21990;42.540;23.496;2023-03-14T09:31:29;5.63;;;2.20;;
35887;SDS011;21990;42.540;23.496;2023-03-14T09:33:55;9.73;;;2.40;;
35887;SDS011;21990;42.540;23.496;2023-03-14T09:36:21;6.15;;;2.75;;
35887;SDS011;21990;42.540;23.496;2023-03-14T09:38:46;3.92;;;2.05;;
35887;SDS011;21990;42.540;23.496;2023-03-14T09:41:14;6.93;;;2.70;;
35887;SDS011;21990;42.540;23.496;2023-03-14T09:43:42;7.00;;;2.60;;
35887;SDS011;21990;42.540;23.496;2023-03-14T09:46:11;4.15;;;2.35;;
35887;SDS011;21990;42.540;23.496;2023-03-14T09:48:38;6.07;;;2.38;;
35887;SDS011;21990;42.540;23.496;2023-03-14T09:51:16;8.02;;;2.33;;
35887;SDS011;21990;42.540;23.496;2023-03-14T09:53:47;4.03;;;2.40;;
35887;SDS011;21990;42.540;23.496;2023-03-14T09:56:24;5.05;;;2.42;;
35887;SDS011;21990;42.540;23.496;2023-03-14T09:58:56;3.42;;;2.00;;
35887;SDS011;21990;42.540;23.496;2023-03-14T10:01:28;3.05;;;1.80;;
35887;SDS011;21990;42.540;23.496;2023-03-14T10:03:56;3.80;;;1.95;;
35887;SDS011;21990;42.540;23.496;2023-03-14T10:06:24;5.97;;;2.00;;
35887;SDS011;21990;42.540;23.496;2023-03-14T10:08:53;4.32;;;2.00;;
35887;SDS011;21990;42.540;23.496;2023-03-14T10:11:20;4.85;;;2.10;;
35887;SDS011;21990;42.540;23.496;2023-03-14T10:13:47;5.28;;;2.13;;
35887;SDS011;21990;42.540;23.496;2023-03-14T10:16:30;4.50;;;2.35;;
35887;SDS011;21990;42.540;23.496;2023-03-14T10:19:04;5.05;;;2.20;;
35887;SDS011;21990;42.540;23.496;2023-03-14T10:21:35;7.85;;;2.58;;
35887;SDS011;21990;42.540;23.496;2023-03-14T10:26:35;6.45;;;2.53;;
35887;SDS011;21990;42.540;23.496;2023-03-14T10:29:03;7.13;;;2.05;;
35887;SDS011;21990;42.540;23.496;2023-03-14T10:34:25;7.20;;;2.55;;
35887;SDS011;21990;42.540;23.496;2023-03-14T10:36:55;4.97;;;2.20;;
35887;SDS011;21990;42.540;23.496;2023-03-14T10:39:34;6.63;;;2.20;;
35887;SDS011;21990;42.540;23.496;2023-03-14T10:45:04;5.35;;;2.22;;
35887;SDS011;21990;42.540;23.496;2023-03-14T10:47:54;5.22;;;2.25;;
35887;SDS011;21990;42.540;23.496;2023-03-14T10:50:25;4.70;;;2.00;;
35887;SDS011;21990;42.540;23.496;2023-03-14T10:52:53;3.80;;;2.28;;
35887;SDS011;21990;42.540;23.496;2023-03-14T10:55:20;4.18;;;2.00;;
35887;SDS011;21990;42.540;23.496;2023-03-14T10:57:46;3.53;;;1.92;;
35887;SDS011;21990;42.540;23.496;2023-03-14T11:00:21;4.43;;;2.22;;
35887;SDS011;21990;42.540;23.496;2023-03-14T11:07:45;7.03;;;1.92;;
35887;SDS011;21990;42.540;23.496;2023-03-14T11:15:29;4.85;;;2.00;;
35887;SDS011;21990;42.540;23.496;2023-03-14T11:21:20;8.23;;;3.00;;
35887;SDS011;21990;42.540;23.496;2023-03-14T11:23:57;7.25;;;2.20;;
35887;SDS011;21990;42.540;23.496;2023-03-14T11:26:42;2.95;;;1.83;;
35887;SDS011;21990;42.540;23.496;2023-03-14T11:29:32;3.63;;;2.10;;
35887;SDS011;21990;42.540;23.496;2023-03-14T11:32:03;2.78;;;1.63;;
35887;SDS011;21990;42.540;23.496;2023-03-14T11:34:43;3.45;;;2.20;;
35887;SDS011;21990;42.540;23.496;2023-03-14T11:37:26;3.20;;;1.65;;
35887;SDS011;21990;42.540;23.496;2023-03-14T11:42:44;3.00;;;1.88;;
35887;SDS011;21990;42.540;23.496;2023-03-14T11:45:18;6.38;;;2.20;;
35887;SDS011;21990;42.540;23.496;2023-03-14T11:48:35;3.40;;;1.70;;
35887;SDS011;21990;42.540;23.496;2023-03-14T11:50:46;4.38;;;1.88;;
35887;SDS011;21990;42.540;23.496;2023-03-14T11:53:22;2.60;;;1.67;;
35887;SDS011;21990;42.540;23.496;2023-03-14T11:56:01;2.85;;;1.52;;
35887;SDS011;21990;42.540;23.496;2023-03-14T11:58:29;2.95;;;1.60;;
35887;SDS011;21990;42.540;23.496;2023-03-14T12:00:58;6.07;;;1.73;;
35887;SDS011;21990;42.540;23.496;2023-03-14T12:03:38;6.97;;;2.13;;
35887;SDS011;21990;42.540;23.496;2023-03-14T12:08:48;5.55;;;1.85;;
35887;SDS011;21990;42.540;23.496;2023-03-14T12:14:25;3.20;;;1.50;;
35887;SDS011;21990;42.540;23.496;2023-03-14T12:16:53;4.13;;;1.65;;
35887;SDS011;21990;42.540;23.496;2023-03-14T12:21:52;6.10;;;2.13;;
35887;SDS011;21990;42.540;23.496;2023-03-14T12:24:26;5.05;;;2.00;;
35887;SDS011;21990;42.540;23.496;2023-03-14T12:26:56;3.88;;;1.80;;
35887;SDS011;21990;42.540;23.496;2023-03-14T12:29:24;2.83;;;1.50;;
35887;SDS011;21990;42.540;23.496;2023-03-14T12:34:48;3.53;;;2.00;;
35887;SDS011;21990;42.540;23.496;2023-03-14T12:37:19;31.10;;;2.92;;
35887;SDS011;21990;42.540;23.496;2023-03-14T12:40:06;8.70;;;2.72;;
35887;SDS011;21990;42.540;23.496;2023-03-14T12:43:02;6.50;;;3.30;;
35887;SDS011;21990;42.540;23.496;2023-03-14T12:45:58;11.23;;;4.57;;
35887;SDS011;21990;42.540;23.496;2023-03-14T12:48:50;4.53;;;1.80;;
35887;SDS011;21990;42.540;23.496;2023-03-14T12:51:20;6.10;;;2.42;;
35887;SDS011;21990;42.540;23.496;2023-03-14T12:59:47;6.15;;;2.20;;
35887;SDS011;21990;42.540;23.496;2023-03-14T13:02:01;5.82;;;2.42;;
35887;SDS011;21990;42.540;23.496;2023-03-14T13:09:54;5.18;;;1.88;;
35887;SDS011;21990;42.540;23.496;2023-03-14T13:12:27;6.90;;;2.35;;
35887;SDS011;21990;42.540;23.496;2023-03-14T13:14:58;3.15;;;1.65;;
35887;SDS011;21990;42.540;23.496;2023-03-14T13:17:31;6.55;;;1.70;;
35887;SDS011;21990;42.540;23.496;2023-03-14T13:20:00;5.50;;;1.90;;
35887;SDS011;21990;42.540;23.496;2023-03-14T13:22:31;3.55;;;1.55;;
35887;SDS011;21990;42.540;23.496;2023-03-14T13:25:00;4.97;;;1.80;;
35887;SDS011;21990;42.540;23.496;2023-03-14T13:27:29;6.43;;;2.55;;
35887;SDS011;21990;42.540;23.496;2023-03-14T13:29:57;5.15;;;1.80;;
35887;SDS011;21990;42.540;23.496;2023-03-14T13:32:26;5.93;;;2.33;;
35887;SDS011;21990;42.540;23.496;2023-03-14T13:34:57;6.40;;;2.28;;
35887;SDS011;21990;42.540;23.496;2023-03-14T13:37:24;6.13;;;2.72;;
35887;SDS011;21990;42.540;23.496;2023-03-14T13:39:54;4.57;;;1.92;;
35887;SDS011;21990;42.540;23.496;2023-03-14T13:42:24;5.35;;;1.98;;
35887;SDS011;21990;42.540;23.496;2023-03-14T13:44:53;6.18;;;1.42;;
35887;SDS011;21990;42.540;23.496;2023-03-14T13:47:21;4.38;;;1.60;;
35887;SDS011;21990;42.540;23.496;2023-03-14T13:49:48;5.20;;;2.00;;
35887;SDS011;21990;42.540;23.496;2023-03-14T13:52:22;12.90;;;1.80;;
35887;SDS011;21990;42.540;23.496;2023-03-14T13:54:47;12.73;;;2.55;;
35887;SDS011;21990;42.540;23.496;2023-03-14T13:57:13;12.27;;;2.95;;
35887;SDS011;21990;42.540;23.496;2023-03-14T13:59:38;3.40;;;1.90;;
35887;SDS011;21990;42.540;23.496;2023-03-14T14:02:04;4.07;;;1.73;;
35887;SDS011;21990;42.540;23.496;2023-03-14T14:04:40;4.30;;;1.95;;
35887;SDS011;21990;42.540;23.496;2023-03-14T14:07:10;8.95;;;3.67;;
35887;SDS011;21990;42.540;23.496;2023-03-14T14:09:44;9.73;;;3.03;;
35887;SDS011;21990;42.540;23.496;2023-03-14T14:12:23;5.93;;;2.30;;
35887;SDS011;21990;42.540;23.496;2023-03-14T14:17:31;8.48;;;2.08;;
35887;SDS011;21990;42.540;23.496;2023-03-14T14:20:02;2.80;;;1.88;;
35887;SDS011;21990;42.540;23.496;2023-03-14T14:22:32;5.70;;;1.90;;
35887;SDS011;21990;42.540;23.496;2023-03-14T14:24:58;11.85;;;4.72;;
35887;SDS011;21990;42.540;23.496;2023-03-14T14:27:33;31.73;;;10.77;;
35887;SDS011;21990;42.540;23.496;2023-03-14T14:30:26;52.92;;;17.95;;
35887;SDS011;21990;42.540;23.496;2023-03-14T14:33:11;14.95;;;6.95;;
35887;SDS011;21990;42.540;23.496;2023-03-14T14:35:49;182.60;;;77.45;;
35887;SDS011;21990;42.540;23.496;2023-03-14T14:40:46;4.88;;;2.50;;
35887;SDS011;21990;42.540;23.496;2023-03-14T14:43:19;129.68;;;56.28;;
35887;SDS011;21990;42.540;23.496;2023-03-14T14:45:49;14.57;;;7.65;;
35887;SDS011;21990;42.540;23.496;2023-03-14T14:48:18;26.00;;;14.93;;
35887;SDS011;21990;42.540;23.496;2023-03-14T14:53:22;47.88;;;13.57;;
35887;SDS011;21990;42.540;23.496;2023-03-14T14:55:59;20.88;;;2.13;;
35887;SDS011;21990;42.540;23.496;2023-03-14T15:01:07;16.85;;;4.28;;
35887;SDS011;21990;42.540;23.496;2023-03-14T15:03:36;6.50;;;3.30;;
35887;SDS011;21990;42.540;23.496;2023-03-14T15:06:03;8.38;;;4.45;;
35887;SDS011;21990;42.540;23.496;2023-03-14T15:08:29;5.68;;;2.33;;
35887;SDS011;21990;42.540;23.496;2023-03-14T15:10:55;3.70;;;2.00;;
35887;SDS011;21990;42.540;23.496;2023-03-14T15:13:21;5.07;;;2.20;;
35887;SDS011;21990;42.540;23.496;2023-03-14T15:15:48;7.25;;;2.50;;
35887;SDS011;21990;42.540;23.496;2023-03-14T15:18:21;3.72;;;1.83;;
35887;SDS011;21990;42.540;23.496;2023-03-14T15:20:49;2.97;;;1.80;;
35887;SDS011;21990;42.540;23.496;2023-03-14T15:23:16;5.53;;;2.42;;
35887;SDS011;21990;42.540;23.496;2023-03-14T15:25:43;7.32;;;3.03;;
35887;SDS011;21990;42.540;23.496;2023-03-14T15:28:29;11.57;;;4.88;;
35887;SDS011;21990;42.540;23.496;2023-03-14T15:30:56;6.85;;;3.90;;
35887;SDS011;21990;42.540;23.496;2023-03-14T15:33:23;13.77;;;5.72;;